createdAt,value
2022-10-31T00:01:39.583Z,99552.59
2022-10-31T00:04:25.931Z,99540.47
2022-10-31T00:07:12.366Z,99540.47
2022-10-31T00:09:58.794Z,99556.84
2022-10-31T00:12:44.919Z,99547.28
2022-10-31T00:15:31.407Z,99553.38
2022-10-31T00:18:17.557Z,99558.50
2022-10-31T00:21:04.405Z,99552.44
2022-10-31T00:23:50.989Z,99552.44
2022-10-31T00:26:37.769Z,99551.59
2022-10-31T00:29:24.210Z,99543.78
2022-10-31T00:32:10.325Z,99548.94
2022-10-31T00:34:56.789Z,99549.81
2022-10-31T00:37:42.920Z,99417.06
2022-10-31T00:40:29.568Z,99532.38
2022-10-31T00:43:16.138Z,99545.31
2022-10-31T00:46:02.406Z,99548.66
2022-10-31T00:48:48.796Z,99525.16
2022-10-31T00:51:35.190Z,99547.75
2022-10-31T00:54:21.908Z,99551.19
2022-10-31T00:57:08.257Z,99542.47
2022-10-31T00:59:54.602Z,99543.34
2022-10-31T01:02:41.306Z,99529.50
2022-10-31T01:05:27.923Z,99545.91
2022-10-31T01:08:14.075Z,99544.13
2022-10-31T01:11:06.012Z,99548.38
2022-10-31T01:13:54.335Z,99547.50
2022-10-31T01:16:40.567Z,99546.63
2022-10-31T01:19:26.972Z,99519.78
2022-10-31T01:22:17.094Z,99537.94
2022-10-31T01:25:04.119Z,99518.88
2022-10-31T01:27:50.396Z,99520.63
2022-10-31T01:30:36.553Z,99540.63
2022-10-31T01:33:22.879Z,99537.09
2022-10-31T01:36:24.114Z,99544.88
2022-10-31T01:39:13.929Z,99546.53
2022-10-31T01:42:00.501Z,99541.22
2022-10-31T01:44:54.556Z,99538.59
2022-10-31T01:47:46.664Z,99541.97
2022-10-31T01:50:38.449Z,99515.09
2022-10-31T01:53:26.961Z,99541.91
2022-10-31T01:56:17.340Z,99531.59
2022-10-31T01:59:08.735Z,99529.81
2022-10-31T02:01:55.248Z,99538.41
2022-10-31T02:04:42.587Z,99526.22
2022-10-31T02:07:38.989Z,99548.63
2022-10-31T02:10:25.976Z,99536.47
2022-10-31T02:13:14.585Z,99525.91
2022-10-31T02:16:06.919Z,99536.34
2022-10-31T02:18:54.506Z,99542.31
2022-10-31T02:21:55.703Z,99538.00
2022-10-31T02:25:18.272Z,99544.00
2022-10-31T02:28:10.915Z,99537.94
2022-10-31T02:31:04.268Z,99543.91
2022-10-31T02:34:11.397Z,99542.09
2022-10-31T02:37:08.616Z,99525.66
2022-10-31T02:40:06.267Z,99528.31
2022-10-31T02:43:35.882Z,99523.16
2022-10-31T02:46:34.264Z,99533.66
2022-10-31T02:49:40.224Z,99518.00
2022-10-31T02:52:30.616Z,99524.06
2022-10-31T02:55:28.594Z,99526.66
2022-10-31T02:58:24.034Z,99514.56
2022-10-31T03:01:24.731Z,99521.63
2022-10-31T03:04:32.203Z,99529.22
2022-10-31T03:07:49.848Z,99521.44
2022-10-31T03:10:41.671Z,99524.06
2022-10-31T03:13:52.746Z,99530.06
2022-10-31T03:16:52.803Z,99537.81
2022-10-31T03:19:52.886Z,99541.13
2022-10-31T03:22:42.585Z,99545.34
2022-10-31T03:25:30.122Z,99535.81
2022-10-31T03:28:24.656Z,99539.16
2022-10-31T03:31:13.342Z,99535.91
2022-10-31T03:34:02.075Z,99535.69
2022-10-31T03:36:53.506Z,99537.34
2022-10-31T03:39:42.090Z,99537.22
2022-10-31T03:42:34.579Z,99535.66
2022-10-31T03:45:27.116Z,99533.91
2022-10-31T03:48:20.449Z,99530.34
2022-10-31T03:51:26.494Z,99528.72
2022-10-31T03:54:32.823Z,99538.16
2022-10-31T03:57:40.920Z,99527.66
2022-10-31T04:00:27.844Z,99514.56
2022-10-31T04:03:20.058Z,99529.28
2022-10-31T04:06:13.085Z,99521.38
2022-10-31T04:09:04.504Z,99532.53
2022-10-31T04:11:54.807Z,99524.78
2022-10-31T04:15:11.498Z,99516.22
2022-10-31T04:18:02.204Z,99529.31
2022-10-31T04:20:51.923Z,99515.75
2022-10-31T04:23:38.504Z,99511.63
2022-10-31T04:26:33.968Z,99513.38
2022-10-31T04:29:20.388Z,99505.53
2022-10-31T04:32:07.013Z,99516.88
2022-10-31T04:34:53.590Z,99481.88
2022-10-31T04:37:42.060Z,99513.69
2022-10-31T04:40:28.381Z,99514.56
2022-10-31T04:43:14.689Z,99516.50
2022-10-31T04:46:03.788Z,99507.88
2022-10-31T04:48:50.210Z,99497.41
2022-10-31T04:51:37.197Z,99512.84
2022-10-31T04:54:23.614Z,99513.13
2022-10-31T04:57:32.901Z,99502.03
2022-10-31T05:00:25.076Z,99495.22
2022-10-31T05:03:11.636Z,99496.00
2022-10-31T05:05:58.190Z,99491.59
2022-10-31T05:08:44.434Z,99483.88
2022-10-31T05:11:31.841Z,99492.47
2022-10-31T05:14:28.668Z,99457.00
2022-10-31T05:17:34.938Z,99475.16
2022-10-31T05:20:41.276Z,99488.16
2022-10-31T05:24:06.178Z,99463.84
2022-10-31T05:26:54.128Z,99488.16
2022-10-31T05:29:40.373Z,99464.13
2022-10-31T05:32:26.864Z,99478.72
2022-10-31T05:35:33.099Z,99467.22
2022-10-31T05:38:38.145Z,99471.53
2022-10-31T05:41:33.026Z,99481.94
2022-10-31T05:44:26.601Z,99468.09
2022-10-31T05:47:24.807Z,99450.56
2022-10-31T05:50:32.200Z,99464.38
2022-10-31T05:53:28.706Z,99477.97
2022-10-31T05:56:15.371Z,99457.09
2022-10-31T05:59:01.849Z,99459.66
2022-10-31T06:01:48.417Z,99453.50
2022-10-31T06:04:57.658Z,99479.53
2022-10-31T06:07:45.734Z,99471.72
2022-10-31T06:10:32.072Z,99473.53
2022-10-31T06:13:18.420Z,99462.38
2022-10-31T06:16:10.053Z,99468.25
2022-10-31T06:18:58.902Z,99452.56
2022-10-31T06:21:46.082Z,99476.81
2022-10-31T06:24:33.112Z,99457.75
2022-10-31T06:27:24.363Z,99462.09
2022-10-31T06:30:11.248Z,99465.53
2022-10-31T06:33:06.761Z,99445.75
2022-10-31T06:35:57.531Z,99444.09
2022-10-31T06:38:44.387Z,99461.53
2022-10-31T06:41:32.699Z,99461.59
2022-10-31T06:44:19.083Z,99471.25
2022-10-31T06:47:31.952Z,99464.66
2022-10-31T06:50:31.258Z,99453.56
2022-10-31T06:53:17.412Z,99475.16
2022-10-31T06:56:03.966Z,99463.00
2022-10-31T06:58:55.367Z,99470.00
2022-10-31T07:02:00.099Z,99475.97
2022-10-31T07:04:46.817Z,99461.22
2022-10-31T07:07:34.897Z,99476.84
2022-10-31T07:10:21.754Z,99465.59
2022-10-31T07:13:15.587Z,99496.75
2022-10-31T07:16:12.925Z,99495.16
2022-10-31T07:18:59.850Z,99496.16
2022-10-31T07:21:46.363Z,99490.97
2022-10-31T07:24:34.970Z,99440.06
2022-10-31T07:27:42.842Z,99502.59
2022-10-31T07:30:31.711Z,99486.16
2022-10-31T07:33:17.973Z,99473.16
2022-10-31T07:36:39.141Z,99500.94
2022-10-31T07:39:25.491Z,99472.25
2022-10-31T07:42:12.127Z,99475.00
2022-10-31T07:45:04.479Z,99498.59
2022-10-31T07:48:16.926Z,99499.63
2022-10-31T07:51:21.334Z,99479.91
2022-10-31T07:54:27.840Z,99505.06
2022-10-31T07:57:15.850Z,99474.75
2022-10-31T08:00:09.419Z,99507.03
2022-10-31T08:03:03.394Z,99505.31
2022-10-31T08:06:08.295Z,99481.28
2022-10-31T08:09:14.858Z,99506.56
2022-10-31T08:12:04.118Z,99502.31
2022-10-31T08:14:52.183Z,99493.03
2022-10-31T08:17:39.704Z,99450.72
2022-10-31T08:20:27.178Z,99473.44
2022-10-31T08:23:15.012Z,99478.00
2022-10-31T08:26:03.134Z,99470.25
2022-10-31T08:28:50.759Z,99476.34
2022-10-31T08:31:42.892Z,99447.03
2022-10-31T08:34:48.376Z,99461.78
2022-10-31T08:38:04.073Z,99470.63
2022-10-31T08:40:50.952Z,99432.69
2022-10-31T08:43:37.408Z,99428.44
2022-10-31T08:46:23.952Z,99448.47
2022-10-31T08:49:10.132Z,99449.38
2022-10-31T08:51:56.670Z,99436.59
2022-10-31T08:54:45.160Z,99443.59
2022-10-31T08:57:55.581Z,99457.47
2022-10-31T09:00:43.682Z,99440.19
2022-10-31T09:03:34.439Z,99435.97
2022-10-31T09:06:21.081Z,99442.03
2022-10-31T09:09:08.694Z,99436.84
2022-10-31T09:11:55.474Z,99425.63
2022-10-31T09:15:01.728Z,99423.91
2022-10-31T09:17:57.763Z,99442.09
2022-10-31T09:21:02.146Z,99420.50
2022-10-31T09:23:50.537Z,99440.38
2022-10-31T09:26:36.732Z,99431.72
2022-10-31T09:29:55.370Z,99417.91
2022-10-31T09:32:41.665Z,99416.16
2022-10-31T09:35:29.058Z,99441.25
2022-10-31T09:38:19.920Z,99417.84
2022-10-31T09:41:15.484Z,99404.84
2022-10-31T09:44:28.800Z,99433.28
2022-10-31T09:47:25.676Z,99437.53
2022-10-31T09:50:56.550Z,99419.31
2022-10-31T09:54:15.337Z,99443.34
2022-10-31T09:57:02.912Z,99451.13
2022-10-31T09:59:50.708Z,99404.44
2022-10-31T10:02:51.528Z,99419.06
2022-10-31T10:05:46.376Z,99438.88
2022-10-31T10:08:40.857Z,99431.91
2022-10-31T10:12:18.904Z,99430.16
2022-10-31T10:15:23.859Z,99430.97
2022-10-31T10:18:16.389Z,99423.13
2022-10-31T10:21:17.767Z,99420.38
2022-10-31T10:24:27.043Z,99391.75
2022-10-31T10:27:47.418Z,99407.13
2022-10-31T10:30:43.400Z,99400.00
2022-10-31T10:33:36.260Z,99402.34
2022-10-31T10:36:31.795Z,99373.53
2022-10-31T10:39:23.531Z,99399.38
2022-10-31T10:42:35.147Z,99390.63
2022-10-31T10:45:40.122Z,99384.50
2022-10-31T10:48:58.315Z,99385.72
2022-10-31T10:52:12.816Z,99382.97
2022-10-31T10:55:22.044Z,99386.38
2022-10-31T10:58:10.535Z,99362.19
2022-10-31T11:00:57.293Z,99379.22
2022-10-31T11:03:43.985Z,99363.47
2022-10-31T11:06:30.296Z,99352.16
2022-10-31T11:09:17.675Z,99359.59
2022-10-31T11:12:19.692Z,99339.06
2022-10-31T11:15:28.434Z,99328.34
2022-10-31T11:18:27.878Z,99331.19
2022-10-31T11:21:31.195Z,99330.38
2022-10-31T11:24:20.368Z,99318.97
2022-10-31T11:27:15.333Z,99317.16
2022-10-31T11:30:07.081Z,99317.84
2022-10-31T11:32:53.482Z,99307.72
2022-10-31T11:35:41.054Z,99291.34
2022-10-31T11:38:40.458Z,99297.16
2022-10-31T11:41:30.809Z,99292.59
2022-10-31T11:44:21.164Z,99292.50
2022-10-31T11:47:17.151Z,99317.03
2022-10-31T11:50:20.134Z,99296.44
2022-10-31T11:53:26.786Z,99298.91
2022-10-31T11:56:17.253Z,99276.28
2022-10-31T11:59:05.924Z,99307.25
2022-10-31T12:01:53.931Z,99303.41
2022-10-31T12:04:48.020Z,99269.84
2022-10-31T12:07:34.157Z,99289.84
2022-10-31T12:10:25.556Z,99264.50
2022-10-31T12:13:46.228Z,99282.63
2022-10-31T12:16:41.137Z,99276.28
2022-10-31T12:19:27.840Z,99276.91
2022-10-31T12:22:17.969Z,99258.94
2022-10-31T12:25:29.395Z,99259.03
2022-10-31T12:28:55.510Z,99253.56
2022-10-31T12:31:49.947Z,99225.78
2022-10-31T12:34:55.658Z,99249.31
2022-10-31T12:38:04.264Z,99237.78
2022-10-31T12:40:57.004Z,99234.28
2022-10-31T12:44:21.380Z,99241.91
2022-10-31T12:47:34.701Z,99211.91
2022-10-31T12:50:58.341Z,99224.06
2022-10-31T12:54:19.890Z,99221.38
2022-10-31T12:57:32.417Z,99213.13
2022-10-31T13:00:20.690Z,99181.72
2022-10-31T13:03:36.544Z,99186.63
2022-10-31T13:06:36.436Z,99172.81
2022-10-31T13:09:49.514Z,99178.19
2022-10-31T13:12:37.536Z,99159.16
2022-10-31T13:15:35.963Z,99147.13
2022-10-31T13:18:30.754Z,99162.69
2022-10-31T13:21:22.955Z,99146.50
2022-10-31T13:24:18.969Z,99169.09
2022-10-31T13:27:20.343Z,99141.22
2022-10-31T13:30:17.769Z,99166.06
2022-10-31T13:33:29.385Z,99170.69
2022-10-31T13:36:46.981Z,99182.03
2022-10-31T13:39:58.375Z,99169.41
2022-10-31T13:42:59.387Z,99144.44
2022-10-31T13:45:54.602Z,99145.50
2022-10-31T13:48:43.461Z,99153.28
2022-10-31T13:51:32.771Z,99163.63
2022-10-31T13:54:40.691Z,99168.41
2022-10-31T13:57:34.446Z,99154.56
2022-10-31T14:00:20.896Z,99152.31
2022-10-31T14:03:35.917Z,99130.63
2022-10-31T14:06:46.641Z,99147.31
2022-10-31T14:09:37.776Z,99124.66
2022-10-31T14:12:34.456Z,99127.41
2022-10-31T14:15:27.137Z,99112.00
2022-10-31T14:18:34.246Z,99100.28
2022-10-31T14:21:23.583Z,99122.81
2022-10-31T14:24:30.831Z,99113.09
2022-10-31T14:27:45.313Z,99129.94
2022-10-31T14:30:32.108Z,99106.00
2022-10-31T14:33:21.136Z,99123.84
2022-10-31T14:36:25.739Z,99118.56
2022-10-31T14:39:25.132Z,99056.78
2022-10-31T14:42:28.675Z,99108.09
2022-10-31T14:45:33.853Z,99109.88
2022-10-31T14:48:32.488Z,99107.47
2022-10-31T14:51:24.048Z,99110.22
2022-10-31T14:54:15.730Z,99102.50
2022-10-31T14:57:15.188Z,99111.88
2022-10-31T15:00:06.413Z,99103.38
2022-10-31T15:03:23.663Z,99114.00
2022-10-31T15:06:20.789Z,99108.00
2022-10-31T15:09:21.344Z,99117.59
2022-10-31T15:12:32.019Z,99105.81
2022-10-31T15:15:24.626Z,99099.03
2022-10-31T15:18:18.367Z,99116.50
2022-10-31T15:21:08.551Z,99105.59
2022-10-31T15:24:01.069Z,99087.84
2022-10-31T15:26:52.810Z,99087.09
2022-10-31T15:29:49.273Z,99103.72
2022-10-31T15:32:35.960Z,99104.88
2022-10-31T15:35:28.033Z,99065.47
2022-10-31T15:38:14.699Z,99074.09
2022-10-31T15:41:07.090Z,99100.06
2022-10-31T15:43:53.586Z,99095.63
2022-10-31T15:46:39.944Z,99089.03
2022-10-31T15:49:29.238Z,99095.22
2022-10-31T15:52:22.525Z,99071.03
2022-10-31T15:55:11.892Z,99070.16
2022-10-31T15:58:01.415Z,99060.72
2022-10-31T16:00:59.265Z,99053.91
2022-10-31T16:04:17.593Z,99044.69
2022-10-31T16:07:21.775Z,99061.34
2022-10-31T16:10:24.892Z,99038.34
2022-10-31T16:13:11.188Z,99052.31
2022-10-31T16:16:35.698Z,98996.50
2022-10-31T16:19:27.945Z,99037.84
2022-10-31T16:22:21.798Z,99009.56
2022-10-31T16:25:15.707Z,99013.16
2022-10-31T16:31:00.844Z,99020.22
2022-10-31T16:33:47.129Z,99006.53
2022-10-31T16:36:39.274Z,98990.41
2022-10-31T16:39:25.368Z,99041.28
2022-10-31T16:42:11.513Z,99033.63
2022-10-31T16:44:57.953Z,99028.56
2022-10-31T16:47:44.074Z,99000.25
2022-10-31T16:50:30.741Z,99029.56
2022-10-31T16:53:18.390Z,99012.50
2022-10-31T16:56:05.320Z,99003.91
2022-10-31T16:58:51.934Z,99012.59
2022-10-31T17:01:40.561Z,99027.03
2022-10-31T17:04:27.101Z,99062.50
2022-10-31T17:07:13.557Z,99047.97
2022-10-31T17:10:00.208Z,99063.53
2022-10-31T17:12:49.189Z,99048.88
2022-10-31T17:15:44.373Z,99051.38
2022-10-31T17:18:30.989Z,99042.81
2022-10-31T17:21:23.190Z,99041.16
2022-10-31T17:24:14.715Z,99071.31
2022-10-31T17:27:01.095Z,99063.56
2022-10-31T17:29:47.717Z,99042.94
2022-10-31T17:32:33.904Z,99054.19
2022-10-31T17:35:20.122Z,99030.16
2022-10-31T17:38:06.464Z,98985.41
2022-10-31T17:40:52.696Z,98987.94
2022-10-31T17:43:39.250Z,98949.16
2022-10-31T17:46:26.083Z,98989.69
2022-10-31T17:49:12.470Z,99015.56
2022-10-31T17:51:58.558Z,98944.22
2022-10-31T17:54:45.428Z,99008.81
2022-10-31T17:57:36.213Z,99000.19
2022-10-31T18:00:24.261Z,98986.50
2022-10-31T18:03:11.540Z,98973.59
2022-10-31T18:05:59.541Z,99002.94
2022-10-31T18:08:45.898Z,99009.00
2022-10-31T18:11:32.935Z,98990.06
2022-10-31T18:14:19.532Z,98998.66
2022-10-31T18:17:06.608Z,98976.38
2022-10-31T18:19:54.844Z,98979.81
2022-10-31T18:22:41.350Z,98976.28
2022-10-31T18:25:27.961Z,98979.75
2022-10-31T18:28:14.161Z,98934.22
2022-10-31T18:31:00.896Z,98978.00
2022-10-31T18:33:47.269Z,98963.38
2022-10-31T18:36:33.626Z,98971.09
2022-10-31T18:39:20.035Z,98968.41
2022-10-31T18:42:06.297Z,98961.59
2022-10-31T18:44:52.675Z,98958.09
2022-10-31T18:47:39.051Z,99004.56
2022-10-31T18:50:25.541Z,98981.34
2022-10-31T18:53:11.818Z,98989.06
2022-10-31T18:55:59.005Z,98999.38
2022-10-31T18:58:45.213Z,99008.94
2022-10-31T19:01:32.143Z,98975.41
2022-10-31T19:04:18.594Z,99026.19
2022-10-31T19:07:04.726Z,99014.13
2022-10-31T19:09:50.790Z,99015.81
2022-10-31T19:12:37.219Z,99037.38
2022-10-31T19:15:23.630Z,99040.81
2022-10-31T19:18:09.832Z,99032.25
2022-10-31T19:20:56.274Z,99021.00
2022-10-31T19:23:44.191Z,99016.69
2022-10-31T19:26:33.661Z,99038.22
2022-10-31T19:29:20.345Z,99033.09
2022-10-31T19:32:06.904Z,99003.00
2022-10-31T19:34:53.329Z,99010.78
2022-10-31T19:37:40.707Z,99022.06
2022-10-31T19:40:27.027Z,99024.63
2022-10-31T19:43:13.140Z,98998.69
2022-10-31T19:46:01.327Z,98983.94
2022-10-31T19:48:47.623Z,99000.44
2022-10-31T19:51:33.781Z,98980.69
2022-10-31T19:54:20.388Z,98979.03
2022-10-31T19:57:06.488Z,99009.28
2022-10-31T19:59:52.683Z,99025.66
2022-10-31T20:02:39.123Z,98986.91
2022-10-31T20:05:26.004Z,99009.41
2022-10-31T20:08:15.799Z,99020.63
2022-10-31T20:11:03.819Z,99031.88
2022-10-31T20:13:50.429Z,99034.44
2022-10-31T20:16:37.295Z,99004.38
2022-10-31T20:19:24.227Z,99018.16
2022-10-31T20:22:10.970Z,99024.19
2022-10-31T20:24:57.525Z,98983.69
2022-10-31T20:27:43.827Z,99002.63
2022-10-31T20:30:30.385Z,99000.03
2022-10-31T20:33:16.677Z,99006.03
2022-10-31T20:36:05.223Z,99038.78
2022-10-31T20:38:52.813Z,99016.38
2022-10-31T20:41:42.789Z,99029.38
2022-10-31T20:44:29.843Z,99062.97
2022-10-31T20:47:16.045Z,99038.88
2022-10-31T20:50:02.461Z,99057.81
2022-10-31T20:52:50.199Z,99065.59
2022-10-31T20:55:37.656Z,99038.91
2022-10-31T20:58:24.364Z,99063.06
2022-10-31T21:01:14.718Z,99061.34
2022-10-31T21:04:05.259Z,99059.63
2022-10-31T21:06:51.469Z,99053.63
2022-10-31T21:09:38.767Z,99049.31
2022-10-31T21:12:25.088Z,99048.41
2022-10-31T21:15:13.709Z,99070.00
2022-10-31T21:18:00.312Z,99060.53
2022-10-31T21:20:47.093Z,99051.03
2022-10-31T21:23:33.273Z,99057.06
2022-10-31T21:26:22.547Z,99066.56
2022-10-31T21:29:11.144Z,99083.78
2022-10-31T21:31:57.640Z,99085.53
2022-10-31T21:34:43.967Z,99066.53
2022-10-31T21:37:30.511Z,99054.47
2022-10-31T21:40:17.622Z,99032.91
2022-10-31T21:43:04.611Z,99038.97
2022-10-31T21:45:51.439Z,99064.81
2022-10-31T21:48:41.723Z,99044.13
2022-10-31T21:51:30.078Z,99067.41
2022-10-31T21:54:28.392Z,99031.22
2022-10-31T21:57:14.945Z,99051.03
2022-10-31T22:00:01.130Z,99011.38
2022-10-31T22:02:47.571Z,99030.34
2022-10-31T22:05:34.793Z,99025.16
2022-10-31T22:08:20.881Z,99016.56
2022-10-31T22:11:13.696Z,99019.13
2022-10-31T22:14:01.293Z,99065.69
2022-10-31T22:16:47.672Z,99015.69
2022-10-31T22:19:34.672Z,99057.09
2022-10-31T22:22:23.836Z,99025.16
2022-10-31T22:25:10.143Z,99036.38
2022-10-31T22:27:56.344Z,99039.81
2022-10-31T22:30:42.829Z,99042.41
2022-10-31T22:33:29.078Z,99006.22
2022-10-31T22:36:19.371Z,99026.91
2022-10-31T22:39:06.383Z,99013.09
2022-10-31T22:41:52.564Z,98991.56
2022-10-31T22:44:38.796Z,99018.28
2022-10-31T22:47:25.272Z,99000.19
2022-10-31T22:50:11.960Z,99007.94
2022-10-31T22:52:58.404Z,99014.84
2022-10-31T22:55:44.547Z,99016.56
2022-10-31T22:58:31.973Z,99035.53
2022-10-31T23:01:27.623Z,99027.78
2022-10-31T23:04:16.256Z,99035.50
2022-10-31T23:07:03.308Z,99001.91
2022-10-31T23:09:49.549Z,98990.69
2022-10-31T23:12:54.496Z,99009.66
2022-10-31T23:15:40.745Z,99036.38
2022-10-31T23:18:48.384Z,99017.41
2022-10-31T23:21:57.067Z,98792.50
2022-10-31T23:24:46.432Z,99021.72
2022-10-31T23:27:33.077Z,99002.72
2022-10-31T23:30:19.551Z,99006.19
2022-10-31T23:33:05.955Z,99012.22
2022-10-31T23:35:52.100Z,99026.88
2022-10-31T23:38:38.427Z,99009.63
2022-10-31T23:41:24.771Z,99024.28
2022-10-31T23:44:10.901Z,99026.00
2022-10-31T23:46:57.560Z,99035.50
2022-10-31T23:49:43.997Z,99032.91
2022-10-31T23:52:30.147Z,99019.13
2022-10-31T23:55:16.540Z,99002.75
2022-10-31T23:58:03.090Z,99017.41
